Latest Weather Observations for Esperance Harbour

IDW60801

Issued at 11:03 pm WST Sunday 20 August 2017 (issued every 30 minutes, with the page automatically refreshed every 10 minutes)

About weather observations | Map of weather stations | Latest weather observations for WA | Other Formats
Station Details ID: 109504 Name: ESPERANCE NTC AWS Lat: -33.87 Lon: 121.90 Height: 0.0 m
Data from the previous 72 hours. | See also: Recent months for locations in Western Australia
Date/Time
WST
Temp
°C
App
Temp
°C
Dew
Point
°C
Rel
Hum
%
Delta-T
°C
Wind Press
QNH
hPa
Press
MSL
hPa
Rain since
9am
mm
Dir  Spd
km/h
Gust
km/h
Spd
kts
Gust
kts
20/11:00pm 14.0 - - - - - - - - - 1020.7 1020.7 -
20/10:30pm 14.2 - - - - - - - - - 1020.9 1020.8 -
20/10:00pm 14.4 - - - - - - - - - 1021.0 1020.9 -
20/09:30pm 14.3 - - - - - - - - - 1021.1 1021.0 -
20/09:00pm 14.4 - - - - - - - - - 1021.0 1020.9 -
20/08:30pm 14.3 - - - - - - - - - 1021.1 1021.0 -
20/08:00pm 14.3 - - - - - - - - - 1021.1 1021.0 -
20/07:30pm 14.0 - - - - - - - - - 1021.1 1021.0 -
20/07:00pm 14.6 - - - - - - - - - 1020.7 1020.7 -
20/06:30pm 15.0 - - - - - - - - - 1020.5 1020.5 -
20/06:00pm 14.7 - - - - - - - - - 1020.3 1020.3 -
20/05:30pm 14.6 - - - - - - - - - 1020.1 1020.1 -
20/05:00pm 14.9 - - - - - - - - - 1020.0 1020.0 -
20/04:30pm 14.7 - - - - - - - - - 1019.8 1019.8 -
20/04:00pm 14.8 - - - - - - - - - 1019.7 1019.7 -
20/03:30pm 14.8 - - - - - - - - - 1019.6 1019.6 -
20/03:00pm 15.3 - - - - - - - - - 1019.3 1019.3 -
20/02:30pm 15.0 - - - - - - - - - 1019.2 1019.2 -
20/02:00pm 15.3 - - - - - - - - - 1019.0 1019.0 -
20/01:30pm 15.8 - - - - - - - - - 1018.9 1018.9 -
20/01:00pm 16.1 - - - - - - - - - 1018.7 1018.7 -
20/12:30pm 14.8 - - - - - - - - - 1018.7 1018.7 -
20/12:00pm 14.6 - - - - - - - - - 1018.7 1018.7 -
20/11:30am 14.9 - - - - - - - - - 1018.7 1018.7 -
20/11:00am 14.9 - - - - - - - - - 1018.6 1018.6 -
20/10:30am 14.5 - - - - - - - - - 1018.1 1018.1 -
20/10:00am 13.8 - - - - - - - - - 1017.5 1017.5 -
20/09:30am 14.0 - - - - - - - - - 1017.1 1017.1 -
20/09:00am 14.4 - - - - - - - - - 1016.6 1016.6 -
20/08:30am 14.0 - - - - - - - - - 1016.0 1016.0 -
20/08:00am 13.8 - - - - - - - - - 1015.4 1015.4 -
20/07:30am 13.7 - - - - - - - - - 1014.7 1014.7 -
20/07:00am 13.8 - - - - - - - - - 1013.6 1013.6 -
20/06:30am 13.9 - - - - - - - - - 1013.1 1013.1 -
20/06:00am 13.7 - - - - - - - - - 1012.6 1012.6 -
20/05:30am 13.9 - - - - - - - - - 1012.0 1012.0 -
20/05:00am 13.9 - - - - - - - - - 1011.6 1011.6 -
20/04:30am 14.1 - - - - - - - - - 1011.2 1011.2 -
20/04:00am 14.1 - - - - - - - - - 1010.6 1010.6 -
20/03:30am 13.3 - - - - - - - - - 1010.0 1010.0 -
20/03:00am 12.0 - - - - - - - - - 1009.7 1009.7 -
20/02:30am 11.6 - - - - - - - - - 1009.7 1009.7 -
20/02:00am 11.1 - - - - - - - - - 1009.9 1009.9 -
20/01:30am 10.6 - - - - - - - - - 1010.1 1010.1 -
20/01:00am 10.9 - - - - - - - - - 1010.4 1010.4 -
20/12:30am 10.9 - - - - - - - - - 1010.8 1010.8 -
20/12:00am 11.2 - - - - - - - - - 1011.2 1011.2 -
 
Date/Time
WST
Temp
°C
App
Temp
°C
Dew
Point
°C
Rel
Hum
%
Delta-T
°C
Wind Press
QNH
hPa
Press
MSL
hPa
Rain since
9am
mm
Dir  Spd
km/h
Gust
km/h
Spd
kts
Gust
kts
19/11:30pm 10.9 - - - - - - - - - 1011.5 1011.5 -
19/11:00pm 10.9 - - - - - - - - - 1011.8 1011.8 -
19/10:30pm 11.2 - - - - - - - - - 1012.0 1012.0 -
19/10:00pm 11.5 - - - - - - - - - 1012.2 1012.2 -
19/09:30pm 11.7 - - - - - - - - - 1012.5 1012.5 -
19/09:00pm 12.0 - - - - - - - - - 1012.6 1012.6 -
19/08:30pm 12.8 - - - - - - - - - 1012.4 1012.4 -
19/08:00pm 12.7 - - - - - - - - - 1012.4 1012.4 -
19/07:30pm 13.1 - - - - - - - - - 1012.4 1012.4 -
19/07:00pm 13.3 - - - - - - - - - 1012.4 1012.4 -
19/06:30pm 13.6 - - - - - - - - - 1012.2 1012.2 -
19/06:00pm 13.7 - - - - - - - - - 1011.8 1011.8 -
19/05:30pm 14.2 - - - - - - - - - 1011.5 1011.5 -
19/05:00pm 15.3 - - - - - - - - - 1011.0 1011.0 -
19/04:30pm 17.1 - - - - - - - - - 1010.3 1010.3 -
19/04:00pm 17.0 - - - - - - - - - 1009.9 1009.9 -
19/03:30pm 16.8 - - - - - - - - - 1010.3 1010.3 -
19/03:00pm 18.2 - - - - - - - - - 1009.5 1009.5 -
19/02:30pm 18.8 - - - - - - - - - 1010.0 1010.0 -
19/02:00pm 17.6 - - - - - - - - - 1010.1 1010.1 -
19/01:30pm 18.3 - - - - - - - - - 1010.6 1010.6 -
19/01:00pm 17.6 - - - - - - - - - 1011.2 1011.2 -
19/12:30pm 16.3 - - - - - - - - - 1011.8 1011.8 -
19/12:00pm 16.8 - - - - - - - - - 1012.2 1012.2 -
19/11:30am 15.6 - - - - - - - - - 1012.7 1012.7 -
19/11:00am 14.9 - - - - - - - - - 1013.3 1013.3 -
19/10:30am 14.8 - - - - - - - - - 1012.5 1012.5 -
19/10:00am 14.2 - - - - - - - - - 1012.5 1012.5 -
19/09:30am 13.9 - - - - - - - - - 1012.7 1012.7 -
19/09:00am 14.4 - - - - - - - - - 1012.8 1012.8 -
19/08:30am 14.0 - - - - - - - - - 1013.7 1013.7 -
19/08:00am 14.0 - - - - - - - - - 1014.2 1014.2 -
19/07:30am 14.1 - - - - - - - - - 1015.1 1015.1 -
19/07:00am 14.0 - - - - - - - - - 1015.2 1015.2 -
19/06:30am 14.5 - - - - - - - - - 1014.8 1014.8 -
19/06:00am 14.6 - - - - - - - - - 1015.4 1015.4 -
19/05:30am 14.6 - - - - - - - - - 1015.1 1015.1 -
19/05:00am 14.8 - - - - - - - - - 1014.8 1014.8 -
19/04:30am 14.8 - - - - - - - - - 1015.1 1015.1 -
19/04:00am 15.3 - - - - - - - - - 1015.0 1015.0 -
19/03:30am 14.9 - - - - - - - - - 1015.2 1015.2 -
19/03:00am 14.9 - - - - - - - - - 1015.4 1015.4 -
19/02:30am 14.7 - - - - - - - - - 1015.0 1015.0 -
19/02:00am 14.6 - - - - - - - - - 1015.4 1015.4 -
19/01:30am 14.8 - - - - - - - - - 1016.0 1016.0 -
19/01:00am 14.8 - - - - - - - - - 1016.2 1016.2 -
19/12:30am 14.9 - - - - - - - - - 1016.3 1016.3 -
19/12:00am 15.1 - - - - - - - - - 1016.3 1016.3 -
 
Date/Time
WST
Temp
°C
App
Temp
°C
Dew
Point
°C
Rel
Hum
%
Delta-T
°C
Wind Press
QNH
hPa
Press
MSL
hPa
Rain since
9am
mm
Dir  Spd
km/h
Gust
km/h
Spd
kts
Gust
kts
18/11:30pm 15.1 - - - - - - - - - 1016.7 1016.7 -
18/11:00pm 14.3 - - - - - - - - - 1017.1 1017.1 -
18/10:30pm 14.7 - - - - - - - - - 1017.0 1017.0 -
18/10:00pm 14.8 - - - - - - - - - 1017.4 1017.4 -
18/09:30pm 15.3 - - - - - - - - - 1017.5 1017.5 -
18/09:00pm 15.9 - - - - - - - - - 1017.0 1017.0 -
18/08:30pm 14.8 - - - - - - - - - 1017.4 1017.4 -
18/08:00pm 14.8 - - - - - - - - - 1017.5 1017.5 -
18/07:30pm 15.7 - - - - - - - - - 1017.3 1017.3 -
18/07:00pm 16.1 - - - - - - - - - 1016.9 1016.9 -
18/06:30pm 16.9 - - - - - - - - - 1017.1 1017.1 -
18/06:00pm 17.4 - - - - - - - - - 1017.0 1017.0 -
18/05:30pm 17.5 - - - - - - - - - 1017.1 1017.1 -
18/05:00pm 17.7 - - - - - - - - - 1017.1 1017.1 -
18/04:30pm 19.2 - - - - - - - - - 1017.1 1017.1 -
18/04:00pm 19.7 - - - - - - - - - 1017.2 1017.2 -
18/03:30pm 20.3 - - - - - - - - - 1017.3 1017.3 -
18/03:00pm 20.0 - - - - - - - - - 1017.4 1017.4 -
18/02:30pm 19.6 - - - - - - - - - 1017.7 1017.7 -
18/02:00pm 19.3 - - - - - - - - - 1017.8 1017.8 -
18/01:30pm 18.8 - - - - - - - - - 1018.1 1018.1 -
18/01:00pm 18.3 - - - - - - - - - 1018.7 1018.7 -
18/12:30pm 18.1 - - - - - - - - - 1019.2 1019.2 -
18/12:00pm 17.8 - - - - - - - - - 1019.7 1019.7 -
18/11:30am 17.2 - - - - - - - - - 1020.4 1020.4 -
18/11:00am 16.4 - - - - - - - - - 1021.0 1020.9 -
18/10:30am 15.5 - - - - - - - - - 1021.5 1021.4 -
18/10:00am 14.2 - - - - - - - - - 1021.8 1021.7 -
18/09:30am 12.8 - - - - - - - - - 1022.0 1021.9 -
18/09:00am 11.1 - - - - - - - - - 1022.1 1022.0 -
18/08:30am 10.0 - - - - - - - - - 1021.9 1021.8 -
18/08:00am 8.6 - - - - - - - - - 1021.7 1021.6 -
18/07:30am 7.8 - - - - - - - - - 1021.5 1021.4 -
18/07:00am 7.7 - - - - - - - - - 1021.3 1021.2 -
18/06:30am 7.9 - - - - - - - - - 1021.0 1020.9 -
18/06:00am 8.3 - - - - - - - - - 1020.7 1020.7 -
18/05:30am 8.2 - - - - - - - - - 1020.7 1020.7 -
18/05:00am 8.4 - - - - - - - - - 1020.7 1020.7 -
18/04:30am 8.4 - - - - - - - - - 1020.5 1020.5 -
18/04:00am 8.7 - - - - - - - - - 1020.6 1020.6 -
18/03:30am 8.8 - - - - - - - - - 1020.6 1020.6 -
18/03:00am 9.0 - - - - - - - - - 1020.7 1020.7 -
18/02:30am 9.3 - - - - - - - - - 1021.0 1020.9 -
18/02:00am 9.4 - - - - - - - - - 1020.7 1020.7 -
18/01:30am 8.7 - - - - - - - - - 1021.0 1020.9 -
18/01:00am 8.8 - - - - - - - - - 1021.0 1020.9 -
18/12:30am 9.2 - - - - - - - - - 1020.6 1020.6 -
18/12:00am 9.1 - - - - - - - - - 1020.7 1020.7 -
 
Date/Time
WST
Temp
°C
App
Temp
°C
Dew
Point
°C
Rel
Hum
%
Delta-T
°C
Wind Press
QNH
hPa
Press
MSL
hPa
Rain since
9am
mm
Dir  Spd
km/h
Gust
km/h
Spd
kts
Gust
kts
17/11:30pm 9.3 - - - - - - - - - 1020.6 1020.6 -

Other Formats:

Comma delimited format used in spreadsheet applications
http://www.bom.gov.au/fwo/IDW60801/IDW60801.95648.axf

JavaScript Object Notation format (JSON) in row-major order
http://www.bom.gov.au/fwo/IDW60801/IDW60801.95648.json